sensor_id;sensor_type;location;lat;lon;timestamp;pressure;altitude;pressure_sealevel;temperature;humidity
76627;BME280;65519;53.230;10.390;2023-11-21T00:01:15;100576.50;;;9.24;100.00
76627;BME280;65519;53.230;10.390;2023-11-21T00:03:42;100571.06;;;9.24;100.00
76627;BME280;65519;53.230;10.390;2023-11-21T00:06:08;100579.78;;;9.26;100.00
76627;BME280;65519;53.230;10.390;2023-11-21T00:08:34;100570.00;;;9.25;100.00
76627;BME280;65519;53.230;10.390;2023-11-21T00:10:59;100578.09;;;9.20;100.00
76627;BME280;65519;53.230;10.390;2023-11-21T00:13:26;100582.44;;;9.16;100.00
76627;BME280;65519;53.230;10.390;2023-11-21T00:15:51;100575.13;;;9.17;100.00
76627;BME280;65519;53.230;10.390;2023-11-21T00:18:16;100577.84;;;9.17;100.00
76627;BME280;65519;53.230;10.390;2023-11-21T00:20:42;100564.16;;;9.06;100.00
76627;BME280;65519;53.230;10.390;2023-11-21T00:23:07;100585.16;;;9.16;100.00
76627;BME280;65519;53.230;10.390;2023-11-21T00:25:34;100595.97;;;9.06;100.00
76627;BME280;65519;53.230;10.390;2023-11-21T00:28:00;100604.09;;;9.01;100.00
76627;BME280;65519;53.230;10.390;2023-11-21T00:30:27;100600.81;;;8.99;100.00
76627;BME280;65519;53.230;10.390;2023-11-21T00:32:54;100607.28;;;8.93;100.00
76627;BME280;65519;53.230;10.390;2023-11-21T00:35:19;100606.72;;;8.86;100.00
76627;BME280;65519;53.230;10.390;2023-11-21T00:37:45;100622.69;;;8.82;100.00
76627;BME280;65519;53.230;10.390;2023-11-21T00:40:12;100617.53;;;8.81;100.00
76627;BME280;65519;53.230;10.390;2023-11-21T00:42:38;100625.81;;;8.64;100.00
76627;BME280;65519;53.230;10.390;2023-11-21T00:45:03;100632.50;;;8.56;100.00
76627;BME280;65519;53.230;10.390;2023-11-21T00:47:29;100634.94;;;8.53;100.00
76627;BME280;65519;53.230;10.390;2023-11-21T00:49:54;100628.63;;;8.47;100.00
76627;BME280;65519;53.230;10.390;2023-11-21T00:52:20;100632.38;;;8.41;100.00
76627;BME280;65519;53.230;10.390;2023-11-21T00:54:46;100631.25;;;8.37;100.00
76627;BME280;65519;53.230;10.390;2023-11-21T00:57:11;100634.22;;;8.35;100.00
76627;BME280;65519;53.230;10.390;2023-11-21T00:59:37;100644.56;;;8.38;100.00
76627;BME280;65519;53.230;10.390;2023-11-21T01:02:03;100638.81;;;8.35;100.00
76627;BME280;65519;53.230;10.390;2023-11-21T01:04:30;100652.16;;;8.36;100.00
76627;BME280;65519;53.230;10.390;2023-11-21T01:06:57;100642.28;;;8.30;100.00
76627;BME280;65519;53.230;10.390;2023-11-21T01:09:23;100644.25;;;8.35;100.00
76627;BME280;65519;53.230;10.390;2023-11-21T01:11:49;100647.91;;;8.24;100.00
76627;BME280;65519;53.230;10.390;2023-11-21T01:14:15;100651.56;;;8.13;100.00
76627;BME280;65519;53.230;10.390;2023-11-21T01:16:40;100662.53;;;8.23;100.00
76627;BME280;65519;53.230;10.390;2023-11-21T01:19:05;100664.72;;;8.21;100.00
76627;BME280;65519;53.230;10.390;2023-11-21T01:21:31;100666.38;;;8.22;100.00
76627;BME280;65519;53.230;10.390;2023-11-21T01:23:57;100675.00;;;8.19;100.00
76627;BME280;65519;53.230;10.390;2023-11-21T01:26:22;100675.47;;;8.11;100.00
76627;BME280;65519;53.230;10.390;2023-11-21T01:28:47;100685.22;;;8.12;100.00
76627;BME280;65519;53.230;10.390;2023-11-21T01:31:17;100686.50;;;8.04;100.00
76627;BME280;65519;53.230;10.390;2023-11-21T01:33:43;100694.06;;;8.02;100.00
76627;BME280;65519;53.230;10.390;2023-11-21T01:36:09;100689.91;;;7.94;100.00
76627;BME280;65519;53.230;10.390;2023-11-21T01:38:34;100689.03;;;7.89;100.00
76627;BME280;65519;53.230;10.390;2023-11-21T01:41:00;100698.03;;;7.94;100.00
76627;BME280;65519;53.230;10.390;2023-11-21T01:43:26;100709.16;;;7.93;100.00
76627;BME280;65519;53.230;10.390;2023-11-21T01:45:53;100694.47;;;7.89;100.00
76627;BME280;65519;53.230;10.390;2023-11-21T01:48:23;100705.56;;;7.87;100.00
76627;BME280;65519;53.230;10.390;2023-11-21T01:50:48;100709.91;;;7.88;100.00
76627;BME280;65519;53.230;10.390;2023-11-21T01:53:14;100707.63;;;7.80;100.00
76627;BME280;65519;53.230;10.390;2023-11-21T01:55:41;100716.34;;;7.82;100.00
76627;BME280;65519;53.230;10.390;2023-11-21T01:58:07;100717.66;;;7.80;100.00
76627;BME280;65519;53.230;10.390;2023-11-21T02:00:34;100724.41;;;7.77;100.00
76627;BME280;65519;53.230;10.390;2023-11-21T02:02:59;100728.34;;;7.69;100.00
76627;BME280;65519;53.230;10.390;2023-11-21T02:05:25;100734.53;;;7.65;100.00
76627;BME280;65519;53.230;10.390;2023-11-21T02:07:51;100739.88;;;7.60;100.00
76627;BME280;65519;53.230;10.390;2023-11-21T02:10:18;100733.81;;;7.53;100.00
76627;BME280;65519;53.230;10.390;2023-11-21T02:12:48;100733.66;;;7.43;100.00
76627;BME280;65519;53.230;10.390;2023-11-21T02:15:16;100740.38;;;7.40;100.00
76627;BME280;65519;53.230;10.390;2023-11-21T02:17:49;100746.16;;;7.44;100.00
76627;BME280;65519;53.230;10.390;2023-11-21T02:20:17;100744.94;;;7.35;100.00
76627;BME280;65519;53.230;10.390;2023-11-21T02:23:03;100753.88;;;7.35;100.00
76627;BME280;65519;53.230;10.390;2023-11-21T02:25:32;100750.84;;;7.31;100.00
76627;BME280;65519;53.230;10.390;2023-11-21T02:28:00;100759.44;;;7.28;100.00
76627;BME280;65519;53.230;10.390;2023-11-21T02:30:26;100756.22;;;7.15;100.00
76627;BME280;65519;53.230;10.390;2023-11-21T02:32:53;100769.66;;;7.21;100.00
76627;BME280;65519;53.230;10.390;2023-11-21T02:35:20;100768.47;;;7.17;100.00
76627;BME280;65519;53.230;10.390;2023-11-21T02:37:47;100767.06;;;7.15;100.00
76627;BME280;65519;53.230;10.390;2023-11-21T02:40:12;100764.03;;;7.11;100.00
76627;BME280;65519;53.230;10.390;2023-11-21T02:42:39;100775.38;;;7.08;100.00
76627;BME280;65519;53.230;10.390;2023-11-21T02:45:06;100766.34;;;7.03;100.00
76627;BME280;65519;53.230;10.390;2023-11-21T02:47:32;100771.75;;;7.03;100.00
76627;BME280;65519;53.230;10.390;2023-11-21T02:49:59;100772.56;;;7.03;100.00
76627;BME280;65519;53.230;10.390;2023-11-21T02:52:24;100773.13;;;7.05;100.00
76627;BME280;65519;53.230;10.390;2023-11-21T02:54:50;100769.28;;;7.01;100.00
76627;BME280;65519;53.230;10.390;2023-11-21T02:57:16;100776.97;;;6.92;100.00
76627;BME280;65519;53.230;10.390;2023-11-21T02:59:42;100782.25;;;6.99;100.00
76627;BME280;65519;53.230;10.390;2023-11-21T03:02:07;100785.19;;;6.97;100.00
76627;BME280;65519;53.230;10.390;2023-11-21T03:04:35;100792.09;;;7.05;100.00
76627;BME280;65519;53.230;10.390;2023-11-21T03:07:01;100795.81;;;6.99;100.00
76627;BME280;65519;53.230;10.390;2023-11-21T03:09:26;100802.94;;;7.05;100.00
76627;BME280;65519;53.230;10.390;2023-11-21T03:11:53;100813.66;;;7.12;100.00
76627;BME280;65519;53.230;10.390;2023-11-21T03:14:20;100814.03;;;7.04;100.00
76627;BME280;65519;53.230;10.390;2023-11-21T03:16:46;100824.06;;;7.03;100.00
76627;BME280;65519;53.230;10.390;2023-11-21T03:19:11;100817.69;;;7.09;100.00
76627;BME280;65519;53.230;10.390;2023-11-21T03:21:37;100821.44;;;7.08;100.00
76627;BME280;65519;53.230;10.390;2023-11-21T03:24:03;100822.78;;;6.94;100.00
76627;BME280;65519;53.230;10.390;2023-11-21T03:26:28;100828.09;;;7.01;100.00
76627;BME280;65519;53.230;10.390;2023-11-21T03:28:55;100830.69;;;6.95;100.00
76627;BME280;65519;53.230;10.390;2023-11-21T03:31:22;100824.84;;;6.87;100.00
76627;BME280;65519;53.230;10.390;2023-11-21T03:33:48;100821.66;;;6.90;100.00
76627;BME280;65519;53.230;10.390;2023-11-21T03:36:14;100825.19;;;6.90;100.00
76627;BME280;65519;53.230;10.390;2023-11-21T03:38:43;100829.44;;;6.86;100.00
76627;BME280;65519;53.230;10.390;2023-11-21T03:41:08;100838.75;;;6.90;100.00
76627;BME280;65519;53.230;10.390;2023-11-21T03:43:37;100837.22;;;6.83;100.00
76627;BME280;65519;53.230;10.390;2023-11-21T03:46:03;100843.22;;;6.85;100.00
76627;BME280;65519;53.230;10.390;2023-11-21T03:48:29;100854.06;;;6.85;100.00
76627;BME280;65519;53.230;10.390;2023-11-21T03:50:54;100863.47;;;6.82;100.00
76627;BME280;65519;53.230;10.390;2023-11-21T03:53:20;100862.91;;;6.80;100.00
76627;BME280;65519;53.230;10.390;2023-11-21T03:55:45;100863.25;;;6.84;100.00
76627;BME280;65519;53.230;10.390;2023-11-21T03:58:11;100874.00;;;6.79;100.00
76627;BME280;65519;53.230;10.390;2023-11-21T04:00:36;100867.00;;;6.83;100.00
76627;BME280;65519;53.230;10.390;2023-11-21T04:03:02;100873.50;;;6.82;100.00
76627;BME280;65519;53.230;10.390;2023-11-21T04:05:28;100875.53;;;6.75;100.00
76627;BME280;65519;53.230;10.390;2023-11-21T04:07:54;100878.22;;;6.75;100.00
76627;BME280;65519;53.230;10.390;2023-11-21T04:10:19;100877.75;;;6.78;100.00
76627;BME280;65519;53.230;10.390;2023-11-21T04:12:45;100881.63;;;6.82;100.00
76627;BME280;65519;53.230;10.390;2023-11-21T04:15:10;100882.34;;;6.77;100.00
76627;BME280;65519;53.230;10.390;2023-11-21T04:17:37;100891.41;;;6.83;100.00
76627;BME280;65519;53.230;10.390;2023-11-21T04:20:04;100892.22;;;6.83;100.00
76627;BME280;65519;53.230;10.390;2023-11-21T04:22:37;100894.47;;;6.86;100.00
76627;BME280;65519;53.230;10.390;2023-11-21T04:25:03;100914.41;;;6.80;100.00
76627;BME280;65519;53.230;10.390;2023-11-21T04:27:29;100920.06;;;6.79;100.00
76627;BME280;65519;53.230;10.390;2023-11-21T04:29:54;100928.28;;;6.84;100.00
76627;BME280;65519;53.230;10.390;2023-11-21T04:32:20;100932.41;;;6.75;100.00
76627;BME280;65519;53.230;10.390;2023-11-21T04:34:45;100941.34;;;6.87;100.00
76627;BME280;65519;53.230;10.390;2023-11-21T04:37:10;100941.94;;;6.89;100.00
76627;BME280;65519;53.230;10.390;2023-11-21T04:39:36;100927.00;;;6.75;100.00
76627;BME280;65519;53.230;10.390;2023-11-21T04:42:01;100944.44;;;6.79;100.00
76627;BME280;65519;53.230;10.390;2023-11-21T04:44:27;100945.84;;;6.81;100.00
76627;BME280;65519;53.230;10.390;2023-11-21T04:46:52;100947.75;;;6.81;100.00
76627;BME280;65519;53.230;10.390;2023-11-21T04:49:18;100941.00;;;6.83;100.00
76627;BME280;65519;53.230;10.390;2023-11-21T04:51:43;100944.66;;;6.77;100.00
76627;BME280;65519;53.230;10.390;2023-11-21T04:54:09;100952.44;;;6.74;100.00
76627;BME280;65519;53.230;10.390;2023-11-21T04:56:35;100954.31;;;6.73;100.00
76627;BME280;65519;53.230;10.390;2023-11-21T04:59:01;100962.81;;;6.77;100.00
76627;BME280;65519;53.230;10.390;2023-11-21T05:01:26;100967.03;;;6.73;100.00
76627;BME280;65519;53.230;10.390;2023-11-21T05:03:52;100966.94;;;6.68;100.00
76627;BME280;65519;53.230;10.390;2023-11-21T05:06:18;100970.72;;;6.67;100.00
76627;BME280;65519;53.230;10.390;2023-11-21T05:08:43;100967.53;;;6.70;100.00
76627;BME280;65519;53.230;10.390;2023-11-21T05:11:08;100978.38;;;6.70;100.00
76627;BME280;65519;53.230;10.390;2023-11-21T05:13:35;100981.09;;;6.70;100.00
76627;BME280;65519;53.230;10.390;2023-11-21T05:16:01;100985.91;;;6.68;100.00
76627;BME280;65519;53.230;10.390;2023-11-21T05:18:29;100985.31;;;6.66;100.00
76627;BME280;65519;53.230;10.390;2023-11-21T05:20:55;100991.78;;;6.65;100.00
76627;BME280;65519;53.230;10.390;2023-11-21T05:23:21;100995.69;;;6.69;100.00
76627;BME280;65519;53.230;10.390;2023-11-21T05:25:46;100993.44;;;6.66;100.00
76627;BME280;65519;53.230;10.390;2023-11-21T05:28:12;100987.91;;;6.60;100.00
76627;BME280;65519;53.230;10.390;2023-11-21T05:30:38;100994.03;;;6.68;100.00
76627;BME280;65519;53.230;10.390;2023-11-21T05:33:06;101006.63;;;6.62;100.00
76627;BME280;65519;53.230;10.390;2023-11-21T05:35:32;100991.91;;;6.46;100.00
76627;BME280;65519;53.230;10.390;2023-11-21T05:37:57;101007.59;;;6.56;100.00
76627;BME280;65519;53.230;10.390;2023-11-21T05:40:22;101017.81;;;6.54;100.00
76627;BME280;65519;53.230;10.390;2023-11-21T05:42:49;101017.00;;;6.53;100.00
76627;BME280;65519;53.230;10.390;2023-11-21T05:45:14;101018.50;;;6.49;100.00
76627;BME280;65519;53.230;10.390;2023-11-21T05:47:42;101024.66;;;6.45;100.00
76627;BME280;65519;53.230;10.390;2023-11-21T05:50:09;101019.47;;;6.55;100.00
76627;BME280;65519;53.230;10.390;2023-11-21T05:52:37;101019.00;;;6.46;100.00
76627;BME280;65519;53.230;10.390;2023-11-21T05:55:03;101032.53;;;6.46;100.00
76627;BME280;65519;53.230;10.390;2023-11-21T05:57:33;101033.97;;;6.49;100.00
76627;BME280;65519;53.230;10.390;2023-11-21T05:59:58;101040.66;;;6.46;100.00
76627;BME280;65519;53.230;10.390;2023-11-21T06:02:24;101041.81;;;6.50;100.00
76627;BME280;65519;53.230;10.390;2023-11-21T06:04:51;101047.50;;;6.60;100.00
76627;BME280;65519;53.230;10.390;2023-11-21T06:07:16;101053.03;;;6.54;100.00
76627;BME280;65519;53.230;10.390;2023-11-21T06:09:42;101056.78;;;6.53;100.00
76627;BME280;65519;53.230;10.390;2023-11-21T06:12:09;101056.09;;;6.57;100.00
76627;BME280;65519;53.230;10.390;2023-11-21T06:14:34;101063.97;;;6.47;100.00
76627;BME280;65519;53.230;10.390;2023-11-21T06:17:00;101060.78;;;6.50;100.00
76627;BME280;65519;53.230;10.390;2023-11-21T06:19:26;101062.56;;;6.45;100.00
76627;BME280;65519;53.230;10.390;2023-11-21T06:21:51;101068.44;;;6.53;100.00
76627;BME280;65519;53.230;10.390;2023-11-21T06:24:17;101069.97;;;6.49;100.00
76627;BME280;65519;53.230;10.390;2023-11-21T06:26:42;101070.19;;;6.36;100.00
76627;BME280;65519;53.230;10.390;2023-11-21T06:29:09;101076.44;;;6.37;100.00
76627;BME280;65519;53.230;10.390;2023-11-21T06:31:34;101088.91;;;6.38;100.00
76627;BME280;65519;53.230;10.390;2023-11-21T06:34:00;101095.63;;;6.35;100.00
76627;BME280;65519;53.230;10.390;2023-11-21T06:36:26;101108.00;;;6.43;100.00
76627;BME280;65519;53.230;10.390;2023-11-21T06:38:52;101112.22;;;6.39;100.00
76627;BME280;65519;53.230;10.390;2023-11-21T06:41:17;101118.59;;;6.44;100.00
76627;BME280;65519;53.230;10.390;2023-11-21T06:43:43;101122.84;;;6.52;100.00
76627;BME280;65519;53.230;10.390;2023-11-21T06:46:12;101124.28;;;6.54;100.00
76627;BME280;65519;53.230;10.390;2023-11-21T06:48:42;101135.72;;;6.56;100.00
76627;BME280;65519;53.230;10.390;2023-11-21T06:51:07;101131.69;;;6.47;100.00
76627;BME280;65519;53.230;10.390;2023-11-21T06:53:33;101134.16;;;6.60;100.00
76627;BME280;65519;53.230;10.390;2023-11-21T06:55:59;101133.34;;;6.60;100.00
76627;BME280;65519;53.230;10.390;2023-11-21T06:58:24;101136.16;;;6.53;100.00
76627;BME280;65519;53.230;10.390;2023-11-21T07:00:50;101145.34;;;6.52;100.00
76627;BME280;65519;53.230;10.390;2023-11-21T07:03:15;101149.25;;;6.56;100.00
76627;BME280;65519;53.230;10.390;2023-11-21T07:05:41;101146.81;;;6.67;100.00
76627;BME280;65519;53.230;10.390;2023-11-21T07:08:06;101146.81;;;6.67;100.00
76627;BME280;65519;53.230;10.390;2023-11-21T07:10:33;101146.53;;;6.56;100.00
76627;BME280;65519;53.230;10.390;2023-11-21T07:12:58;101161.13;;;6.55;100.00
76627;BME280;65519;53.230;10.390;2023-11-21T07:15:24;101171.75;;;6.57;100.00
76627;BME280;65519;53.230;10.390;2023-11-21T07:17:51;101172.34;;;6.59;100.00
76627;BME280;65519;53.230;10.390;2023-11-21T07:20:17;101167.75;;;6.59;100.00
76627;BME280;65519;53.230;10.390;2023-11-21T07:22:42;101163.41;;;6.58;100.00
76627;BME280;65519;53.230;10.390;2023-11-21T07:25:08;101167.34;;;6.44;100.00
76627;BME280;65519;53.230;10.390;2023-11-21T07:27:35;101167.94;;;6.46;100.00
76627;BME280;65519;53.230;10.390;2023-11-21T07:30:01;101182.91;;;6.49;100.00
76627;BME280;65519;53.230;10.390;2023-11-21T07:32:30;101189.97;;;6.50;100.00
76627;BME280;65519;53.230;10.390;2023-11-21T07:34:55;101187.97;;;6.45;100.00
76627;BME280;65519;53.230;10.390;2023-11-21T07:37:22;101188.69;;;6.52;100.00
76627;BME280;65519;53.230;10.390;2023-11-21T07:39:48;101183.47;;;6.51;100.00
76627;BME280;65519;53.230;10.390;2023-11-21T07:42:13;101197.78;;;6.58;100.00
76627;BME280;65519;53.230;10.390;2023-11-21T07:44:38;101201.53;;;6.57;100.00
76627;BME280;65519;53.230;10.390;2023-11-21T07:47:04;101202.81;;;6.54;100.00
76627;BME280;65519;53.230;10.390;2023-11-21T07:49:30;101208.72;;;6.63;100.00
76627;BME280;65519;53.230;10.390;2023-11-21T07:51:56;101209.44;;;6.58;100.00
76627;BME280;65519;53.230;10.390;2023-11-21T07:54:21;101208.13;;;6.61;100.00
76627;BME280;65519;53.230;10.390;2023-11-21T07:56:47;101212.38;;;6.57;100.00
76627;BME280;65519;53.230;10.390;2023-11-21T07:59:12;101221.94;;;6.59;100.00
76627;BME280;65519;53.230;10.390;2023-11-21T08:01:39;101223.56;;;6.60;100.00
76627;BME280;65519;53.230;10.390;2023-11-21T08:04:05;101237.72;;;6.63;100.00
76627;BME280;65519;53.230;10.390;2023-11-21T08:06:32;101238.19;;;6.59;100.00
76627;BME280;65519;53.230;10.390;2023-11-21T08:08:58;101236.28;;;6.60;100.00
76627;BME280;65519;53.230;10.390;2023-11-21T08:11:24;101243.22;;;6.56;100.00
76627;BME280;65519;53.230;10.390;2023-11-21T08:13:50;101244.94;;;6.50;100.00
76627;BME280;65519;53.230;10.390;2023-11-21T08:16:15;101247.22;;;6.53;100.00
76627;BME280;65519;53.230;10.390;2023-11-21T08:18:42;101241.50;;;6.43;100.00
76627;BME280;65519;53.230;10.390;2023-11-21T08:21:07;101262.03;;;6.51;100.00
76627;BME280;65519;53.230;10.390;2023-11-21T08:23:34;101257.22;;;6.53;100.00
76627;BME280;65519;53.230;10.390;2023-11-21T08:25:59;101259.09;;;6.52;100.00
76627;BME280;65519;53.230;10.390;2023-11-21T08:28:25;101260.97;;;6.52;100.00
76627;BME280;65519;53.230;10.390;2023-11-21T08:30:53;101263.63;;;6.58;100.00
76627;BME280;65519;53.230;10.390;2023-11-21T08:33:21;101263.63;;;6.58;100.00
76627;BME280;65519;53.230;10.390;2023-11-21T08:35:46;101269.88;;;6.59;100.00
76627;BME280;65519;53.230;10.390;2023-11-21T08:38:12;101264.78;;;6.63;100.00
76627;BME280;65519;53.230;10.390;2023-11-21T08:40:38;101274.25;;;6.72;100.00
76627;BME280;65519;53.230;10.390;2023-11-21T08:43:03;101272.03;;;6.69;100.00
76627;BME280;65519;53.230;10.390;2023-11-21T08:45:32;101276.84;;;6.67;100.00
76627;BME280;65519;53.230;10.390;2023-11-21T08:48:02;101279.81;;;6.77;100.00
76627;BME280;65519;53.230;10.390;2023-11-21T08:50:28;101289.22;;;6.74;100.00
76627;BME280;65519;53.230;10.390;2023-11-21T08:52:53;101288.41;;;6.74;100.00
76627;BME280;65519;53.230;10.390;2023-11-21T08:55:19;101291.22;;;6.67;100.00
76627;BME280;65519;53.230;10.390;2023-11-21T08:57:45;101293.00;;;6.73;100.00
76627;BME280;65519;53.230;10.390;2023-11-21T09:00:12;101298.06;;;6.70;100.00
76627;BME280;65519;53.230;10.390;2023-11-21T09:02:38;101305.88;;;6.78;100.00
76627;BME280;65519;53.230;10.390;2023-11-21T09:05:08;101308.41;;;6.73;100.00
76627;BME280;65519;53.230;10.390;2023-11-21T09:07:35;101321.28;;;6.77;100.00
76627;BME280;65519;53.230;10.390;2023-11-21T09:10:02;101318.38;;;6.79;100.00
76627;BME280;65519;53.230;10.390;2023-11-21T09:12:28;101317.22;;;6.86;100.00
76627;BME280;65519;53.230;10.390;2023-11-21T09:14:53;101321.69;;;6.81;100.00
76627;BME280;65519;53.230;10.390;2023-11-21T09:17:19;101325.78;;;6.83;100.00
76627;BME280;65519;53.230;10.390;2023-11-21T09:19:44;101326.91;;;6.94;100.00
76627;BME280;65519;53.230;10.390;2023-11-21T09:22:15;101327.09;;;6.81;100.00
76627;BME280;65519;53.230;10.390;2023-11-21T09:24:40;101333.38;;;6.93;100.00
76627;BME280;65519;53.230;10.390;2023-11-21T09:27:06;101344.00;;;6.94;100.00
76627;BME280;65519;53.230;10.390;2023-11-21T09:29:31;101342.34;;;6.93;100.00
76627;BME280;65519;53.230;10.390;2023-11-21T09:31:59;101342.94;;;6.95;100.00
76627;BME280;65519;53.230;10.390;2023-11-21T09:34:25;101358.97;;;6.97;100.00
76627;BME280;65519;53.230;10.390;2023-11-21T09:36:51;101357.31;;;6.96;100.00
76627;BME280;65519;53.230;10.390;2023-11-21T09:39:17;101368.38;;;7.13;100.00
76627;BME280;65519;53.230;10.390;2023-11-21T09:41:49;101369.19;;;7.13;100.00
76627;BME280;65519;53.230;10.390;2023-11-21T09:44:18;101371.41;;;7.16;100.00
76627;BME280;65519;53.230;10.390;2023-11-21T09:46:48;101373.91;;;7.18;100.00
76627;BME280;65519;53.230;10.390;2023-11-21T09:49:22;101373.69;;;7.19;100.00
76627;BME280;65519;53.230;10.390;2023-11-21T09:51:54;101374.41;;;7.26;100.00
76627;BME280;65519;53.230;10.390;2023-11-21T09:54:20;101386.56;;;7.24;100.00
76627;BME280;65519;53.230;10.390;2023-11-21T09:56:47;101393.28;;;7.21;100.00
76627;BME280;65519;53.230;10.390;2023-11-21T09:59:13;101389.03;;;7.25;100.00
76627;BME280;65519;53.230;10.390;2023-11-21T10:01:41;101386.56;;;7.24;100.00
76627;BME280;65519;53.230;10.390;2023-11-21T10:04:08;101393.88;;;7.23;100.00
76627;BME280;65519;53.230;10.390;2023-11-21T10:06:40;101394.97;;;7.34;100.00
76627;BME280;65519;53.230;10.390;2023-11-21T10:09:12;101394.63;;;7.42;100.00
76627;BME280;65519;53.230;10.390;2023-11-21T10:11:42;101396.16;;;7.38;100.00
76627;BME280;65519;53.230;10.390;2023-11-21T10:14:12;101393.31;;;7.33;100.00
76627;BME280;65519;53.230;10.390;2023-11-21T10:16:40;101403.66;;;7.24;100.00
76627;BME280;65519;53.230;10.390;2023-11-21T10:19:09;101400.94;;;7.24;100.00
76627;BME280;65519;53.230;10.390;2023-11-21T10:21:35;101410.72;;;7.25;100.00
76627;BME280;65519;53.230;10.390;2023-11-21T10:24:02;101410.72;;;7.25;100.00
76627;BME280;65519;53.230;10.390;2023-11-21T10:26:29;101421.56;;;7.25;100.00
76627;BME280;65519;53.230;10.390;2023-11-21T10:29:00;101422.78;;;7.29;100.00
76627;BME280;65519;53.230;10.390;2023-11-21T10:31:33;101418.63;;;7.27;100.00
76627;BME280;65519;53.230;10.390;2023-11-21T10:34:14;101422.16;;;7.27;100.00
76627;BME280;65519;53.230;10.390;2023-11-21T10:36:40;101419.84;;;7.31;100.00
76627;BME280;65519;53.230;10.390;2023-11-21T10:39:06;101418.41;;;7.28;100.00
76627;BME280;65519;53.230;10.390;2023-11-21T10:41:32;101419.06;;;7.42;100.00
76627;BME280;65519;53.230;10.390;2023-11-21T10:43:57;101422.81;;;7.41;100.00
76627;BME280;65519;53.230;10.390;2023-11-21T10:46:23;101417.72;;;7.33;100.00
76627;BME280;65519;53.230;10.390;2023-11-21T10:48:53;101427.25;;;7.36;100.00
76627;BME280;65519;53.230;10.390;2023-11-21T10:51:22;101422.09;;;7.34;100.00
76627;BME280;65519;53.230;10.390;2023-11-21T10:53:51;101413.84;;;7.41;100.00
76627;BME280;65519;53.230;10.390;2023-11-21T10:56:18;101406.09;;;7.44;100.00
76627;BME280;65519;53.230;10.390;2023-11-21T10:58:48;101421.47;;;7.62;100.00
76627;BME280;65519;53.230;10.390;2023-11-21T11:01:16;101419.59;;;7.62;100.00
76627;BME280;65519;53.230;10.390;2023-11-21T11:03:44;101430.28;;;7.57;100.00
76627;BME280;65519;53.230;10.390;2023-11-21T11:06:10;101434.31;;;7.55;100.00
76627;BME280;65519;53.230;10.390;2023-11-21T11:08:38;101432.31;;;7.62;100.00
76627;BME280;65519;53.230;10.390;2023-11-21T11:11:08;101431.78;;;7.42;100.00
76627;BME280;65519;53.230;10.390;2023-11-21T11:13:35;101426.75;;;7.45;100.00
76627;BME280;65519;53.230;10.390;2023-11-21T11:16:03;101423.66;;;7.42;100.00
76627;BME280;65519;53.230;10.390;2023-11-21T11:18:33;101421.31;;;7.45;100.00
76627;BME280;65519;53.230;10.390;2023-11-21T11:35:34;101461.53;;;7.78;100.00
76627;BME280;65519;53.230;10.390;2023-11-21T11:38:03;101464.59;;;7.82;100.00
76627;BME280;65519;53.230;10.390;2023-11-21T11:40:44;101467.94;;;7.95;100.00
76627;BME280;65519;53.230;10.390;2023-11-21T11:43:10;101458.38;;;8.04;100.00
76627;BME280;65519;53.230;10.390;2023-11-21T11:45:37;101463.09;;;7.97;100.00
76627;BME280;65519;53.230;10.390;2023-11-21T11:48:07;101463.91;;;7.86;100.00
76627;BME280;65519;53.230;10.390;2023-11-21T11:50:33;101473.44;;;7.77;100.00
76627;BME280;65519;53.230;10.390;2023-11-21T11:53:15;101452.38;;;7.61;100.00
76627;BME280;65519;53.230;10.390;2023-11-21T11:55:41;101471.81;;;7.58;100.00
76627;BME280;65519;53.230;10.390;2023-11-21T11:58:07;101475.91;;;7.49;100.00
76627;BME280;65519;53.230;10.390;2023-11-21T12:00:34;101485.38;;;7.46;100.00
76627;BME280;65519;53.230;10.390;2023-11-21T12:03:03;101485.94;;;7.48;100.00
76627;BME280;65519;53.230;10.390;2023-11-21T12:05:31;101480.59;;;7.42;100.00
76627;BME280;65519;53.230;10.390;2023-11-21T12:08:09;101484.00;;;7.37;100.00
76627;BME280;65519;53.230;10.390;2023-11-21T12:10:36;101491.63;;;7.28;100.00
76627;BME280;65519;53.230;10.390;2023-11-21T12:13:05;101484.03;;;7.19;100.00
76627;BME280;65519;53.230;10.390;2023-11-21T12:15:36;101487.34;;;7.21;100.00
76627;BME280;65519;53.230;10.390;2023-11-21T12:18:02;101486.50;;;7.20;100.00
76627;BME280;65519;53.230;10.390;2023-11-21T12:20:29;101503.31;;;7.29;100.00
76627;BME280;65519;53.230;10.390;2023-11-21T12:23:00;101493.28;;;7.29;100.00
76627;BME280;65519;53.230;10.390;2023-11-21T12:25:29;101507.06;;;7.28;100.00
76627;BME280;65519;53.230;10.390;2023-11-21T12:27:57;101517.56;;;7.24;100.00
76627;BME280;65519;53.230;10.390;2023-11-21T12:30:27;101509.16;;;7.26;100.00
76627;BME280;65519;53.230;10.390;2023-11-21T12:32:57;101505.19;;;7.28;100.00
76627;BME280;65519;53.230;10.390;2023-11-21T12:35:33;101518.75;;;7.28;100.00
76627;BME280;65519;53.230;10.390;2023-11-21T12:38:00;101524.59;;;7.25;100.00
76627;BME280;65519;53.230;10.390;2023-11-21T12:40:28;101528.41;;;7.24;100.00
76627;BME280;65519;53.230;10.390;2023-11-21T12:42:56;101520.78;;;7.33;100.00
76627;BME280;65519;53.230;10.390;2023-11-21T12:45:26;101529.88;;;7.39;100.00
76627;BME280;65519;53.230;10.390;2023-11-21T12:50:22;101533.56;;;7.26;100.00
76627;BME280;65519;53.230;10.390;2023-11-21T12:52:51;101532.16;;;7.23;100.00
76627;BME280;65519;53.230;10.390;2023-11-21T12:55:22;101535.31;;;7.20;100.00